SETU/TUA METAR and TAF weather

Enter ICAO airport designator
Station Type Date Time Source
SETU METAR 2019/04/25 15:00 UTC NOAA

SETU 251500Z 00000KT 9999 BKN020 14/10 Q1034


Station Type Date Time Source
SETU Decoded METAR 2019/04/25 15:00 UTC NOAA

Tulcan / El Rosal, Ecuador (SETU) 00-49N 077-42W
Apr 25, 2019 - 11:00 AM EDT / 2019.04.25 1500 UTC
Wind: Calm:0
Visibility: greater than 7 mile(s):0
Sky conditions: mostly cloudy
Temperature: 57 F (14 C)
Dew Point: 50 F (10 C)
Relative Humidity: 76%
Pressure (altimeter): 30.53 in. Hg (1034 hPa)
ob: SETU 251500Z 00000KT 9999 BKN020 14/10 Q1034
cycle: 15

Station Type Date Time Source
SETU TAF UTC NOAA

Error!

Example: see airport list